createdAt,value
2019-04-20T00:01:33.600Z,96396.00
2019-04-20T00:04:03.157Z,96398.00
2019-04-20T00:06:41.683Z,96399.00
2019-04-20T00:09:14.092Z,96396.00
2019-04-20T00:11:49.309Z,96395.00
2019-04-20T00:14:18.952Z,96400.00
2019-04-20T00:16:46.109Z,96406.00
2019-04-20T00:19:24.272Z,96397.00
2019-04-20T00:21:58.568Z,96389.00
2019-04-20T00:24:39.299Z,96398.00
2019-04-20T00:27:32.823Z,96390.00
2019-04-20T00:30:00.135Z,96384.00
2019-04-20T00:32:29.516Z,96384.00
2019-04-20T00:34:50.375Z,96384.00
2019-04-20T00:37:21.184Z,96389.00
2019-04-20T00:39:53.040Z,96387.00
2019-04-20T00:42:33.126Z,96385.00
2019-04-20T00:45:05.861Z,96382.00
2019-04-20T00:47:37.340Z,96381.00
2019-04-20T00:50:23.147Z,96387.00
2019-04-20T00:52:50.898Z,96392.00
2019-04-20T00:55:06.380Z,96386.00
2019-04-20T00:57:46.385Z,96393.00
2019-04-20T01:00:26.848Z,96382.00
2019-04-20T01:02:54.135Z,96394.00
2019-04-20T01:05:46.420Z,96387.00
2019-04-20T01:08:25.401Z,96379.00
2019-04-20T01:10:58.251Z,96381.00
2019-04-20T01:13:30.058Z,96388.00
2019-04-20T01:16:06.318Z,96374.00
2019-04-20T01:18:32.901Z,96385.00
2019-04-20T01:21:06.553Z,96378.00
2019-04-20T01:23:43.804Z,96380.00
2019-04-20T01:26:12.981Z,96381.00
2019-04-20T01:28:54.262Z,96389.00
2019-04-20T01:31:22.111Z,96378.00
2019-04-20T01:33:57.763Z,96378.00
2019-04-20T01:36:37.052Z,96381.00
2019-04-20T01:39:05.048Z,96373.00
2019-04-20T01:41:22.406Z,96389.00
2019-04-20T01:43:54.371Z,96381.00
2019-04-20T01:46:28.038Z,96383.00
2019-04-20T01:49:00.189Z,96389.00
2019-04-20T01:51:39.071Z,96385.00
2019-04-20T01:54:22.018Z,96388.00
2019-04-20T01:56:53.645Z,96386.00
2019-04-20T01:59:37.095Z,96389.00
2019-04-20T02:02:29.467Z,96390.00
2019-04-20T02:05:11.471Z,96386.00
2019-04-20T02:07:41.634Z,96393.00
2019-04-20T02:10:11.721Z,96394.00
2019-04-20T02:12:42.545Z,96391.00
2019-04-20T02:15:23.214Z,96392.00
2019-04-20T02:18:20.580Z,96393.00
2019-04-20T02:21:06.489Z,96388.00
2019-04-20T02:23:49.925Z,96395.00
2019-04-20T02:26:36.666Z,96397.00
2019-04-20T02:29:59.856Z,96395.00
2019-04-20T02:32:22.749Z,96392.00
2019-04-20T02:35:14.164Z,96389.00
2019-04-20T02:38:02.875Z,96396.00
2019-04-20T02:40:39.670Z,96390.00
2019-04-20T02:43:15.189Z,96399.00
2019-04-20T02:46:04.017Z,96393.00
2019-04-20T02:48:32.669Z,96399.00
2019-04-20T02:54:15.186Z,96400.00
2019-04-20T02:56:45.380Z,96403.00
2019-04-20T02:59:31.621Z,96393.00
2019-04-20T03:01:40.764Z,96401.00
2019-04-20T03:04:40.231Z,96398.00
2019-04-20T03:07:50.062Z,96395.00
2019-04-20T03:10:26.622Z,96398.00
2019-04-20T03:13:32.321Z,96391.00
2019-04-20T03:16:45.543Z,96392.00
2019-04-20T03:19:17.113Z,96402.00
2019-04-20T03:22:05.176Z,96383.00
2019-04-20T03:25:24.219Z,96384.00
2019-04-20T03:28:14.106Z,96402.00
2019-04-20T03:37:12.753Z,96397.00
2019-04-20T03:39:57.078Z,96404.00
2019-04-20T03:42:33.039Z,96397.00
2019-04-20T03:45:23.146Z,96407.00
2019-04-20T03:48:06.025Z,96398.00
2019-04-20T03:50:46.577Z,96403.00
2019-04-20T03:53:22.859Z,96415.00
2019-04-20T03:56:11.804Z,96411.00
2019-04-20T03:59:11.637Z,96409.00
2019-04-20T04:02:37.785Z,96407.00
2019-04-20T04:05:04.607Z,96426.00
2019-04-20T04:07:43.771Z,96417.00
2019-04-20T04:10:58.521Z,96420.00
2019-04-20T04:13:17.105Z,96421.00
2019-04-20T04:15:55.539Z,96423.00
2019-04-20T04:18:29.689Z,96420.00
2019-04-20T04:21:03.024Z,96426.00
2019-04-20T04:23:48.972Z,96418.00
2019-04-20T04:26:22.493Z,96432.00
2019-04-20T04:28:56.333Z,96420.00
2019-04-20T04:32:05.417Z,96419.00
2019-04-20T04:34:59.085Z,96421.00
2019-04-20T04:37:53.942Z,96427.00
2019-04-20T04:40:58.704Z,96426.00
2019-04-20T04:43:06.879Z,96427.00
2019-04-20T04:45:19.546Z,96429.00
2019-04-20T04:48:14.817Z,96432.00
2019-04-20T04:50:49.586Z,96425.00
2019-04-20T04:53:28.458Z,96435.00
2019-04-20T04:55:56.515Z,96431.00
2019-04-20T04:58:21.597Z,96439.00
2019-04-20T05:01:03.922Z,96437.00
2019-04-20T05:04:09.997Z,96438.00
2019-04-20T05:06:58.221Z,96445.00
2019-04-20T05:09:20.415Z,96441.00
2019-04-20T05:11:59.712Z,96430.00
2019-04-20T05:14:38.713Z,96441.00
2019-04-20T05:17:48.325Z,96437.00
2019-04-20T05:20:15.105Z,96435.00
2019-04-20T05:22:55.901Z,96442.00
2019-04-20T05:26:05.395Z,96427.00
2019-04-20T05:28:27.815Z,96432.00
2019-04-20T05:31:13.407Z,96432.00
2019-04-20T05:34:08.580Z,96431.00
2019-04-20T05:37:11.047Z,96432.00
2019-04-20T05:39:32.629Z,96437.00
2019-04-20T05:42:16.148Z,96424.00
2019-04-20T05:44:45.584Z,96439.00
2019-04-20T05:47:34.424Z,96424.00
2019-04-20T05:50:21.947Z,96428.00
2019-04-20T05:53:30.763Z,96419.00
2019-04-20T05:56:03.815Z,96417.00
2019-04-20T05:58:38.692Z,96424.00
2019-04-20T06:01:52.798Z,96419.00
2019-04-20T06:04:41.287Z,96419.00
2019-04-20T06:07:06.035Z,96429.00
2019-04-20T06:09:42.662Z,96428.00
2019-04-20T06:12:25.417Z,96433.00
2019-04-20T06:15:04.501Z,96439.00
2019-04-20T06:18:01.000Z,96443.00
2019-04-20T06:21:00.098Z,96445.00
2019-04-20T06:26:43.707Z,96444.00
2019-04-20T06:29:54.307Z,96447.00
2019-04-20T06:33:31.080Z,96442.00
2019-04-20T06:36:38.600Z,96451.00
2019-04-20T06:39:18.704Z,96444.00
2019-04-20T06:42:59.954Z,96446.00
2019-04-20T06:45:35.780Z,96450.00
2019-04-20T06:48:11.989Z,96446.00
2019-04-20T06:51:25.376Z,96444.00
2019-04-20T06:54:16.340Z,96432.00
2019-04-20T06:57:07.292Z,96432.00
2019-04-20T07:00:08.579Z,96436.00
2019-04-20T07:03:47.122Z,96433.00
2019-04-20T07:06:54.876Z,96432.00
2019-04-20T07:09:47.328Z,96437.00
2019-04-20T07:12:43.648Z,96431.00
2019-04-20T07:15:39.917Z,96430.00
2019-04-20T07:18:43.549Z,96433.00
2019-04-20T07:22:02.298Z,96442.00
2019-04-20T07:24:30.603Z,96442.00
2019-04-20T07:27:00.628Z,96443.00
2019-04-20T07:29:40.708Z,96443.00
2019-04-20T07:32:09.759Z,96442.00
2019-04-20T07:35:08.702Z,96441.00
2019-04-20T07:38:08.367Z,96447.00
2019-04-20T07:40:35.988Z,96448.00
2019-04-20T07:43:31.980Z,96448.00
2019-04-20T07:46:20.790Z,96446.00
2019-04-20T07:49:12.879Z,96439.00
2019-04-20T07:51:29.431Z,96440.00
2019-04-20T07:54:35.699Z,96432.00
2019-04-20T07:57:24.450Z,96432.00
2019-04-20T08:00:04.824Z,96425.00
2019-04-20T08:02:57.468Z,96434.00
2019-04-20T08:05:54.110Z,96431.00
2019-04-20T08:08:30.882Z,96436.00
2019-04-20T08:11:56.643Z,96430.00
2019-04-20T08:14:33.576Z,96430.00
2019-04-20T08:20:17.307Z,96432.00
2019-04-20T08:22:47.944Z,96431.00
2019-04-20T08:26:00.499Z,96437.00
2019-04-20T08:28:36.271Z,96434.00
2019-04-20T08:31:50.420Z,96430.00
2019-04-20T08:34:53.534Z,96434.00
2019-04-20T08:38:05.740Z,96426.00
2019-04-20T08:40:40.269Z,96432.00
2019-04-20T08:46:38.324Z,96422.00
2019-04-20T08:49:22.208Z,96427.00
2019-04-20T08:52:43.957Z,96423.00
2019-04-20T08:55:09.194Z,96425.00
2019-04-20T08:57:51.499Z,96420.00
2019-04-20T09:00:33.142Z,96416.00
2019-04-20T09:03:28.118Z,96425.00
2019-04-20T09:06:06.415Z,96418.00
2019-04-20T09:09:22.415Z,96418.00
2019-04-20T09:12:09.118Z,96420.00
2019-04-20T09:14:46.671Z,96415.00
2019-04-20T09:17:32.541Z,96417.00
2019-04-20T09:20:31.904Z,96416.00
2019-04-20T09:23:31.493Z,96413.00
2019-04-20T09:26:24.773Z,96410.00
2019-04-20T09:28:59.117Z,96410.00
2019-04-20T09:32:09.611Z,96397.00
2019-04-20T09:34:57.113Z,96396.00
2019-04-20T09:38:14.463Z,96388.00
2019-04-20T09:41:45.219Z,96391.00
2019-04-20T09:43:52.542Z,96394.00
2019-04-20T09:46:56.296Z,96390.00
2019-04-20T09:50:00.849Z,96382.00
2019-04-20T09:53:20.912Z,96375.00
2019-04-20T09:55:59.490Z,96372.00
2019-04-20T09:59:08.255Z,96381.00
2019-04-20T10:01:45.230Z,96375.00
2019-04-20T10:04:55.697Z,96370.00
2019-04-20T10:07:48.391Z,96371.00
2019-04-20T10:11:03.535Z,96364.00
2019-04-20T10:14:06.155Z,96367.00
2019-04-20T10:16:56.220Z,96363.00
2019-04-20T10:20:14.653Z,96360.00
2019-04-20T10:22:38.620Z,96359.00
2019-04-20T10:25:50.894Z,96366.00
2019-04-20T10:28:43.947Z,96359.00
2019-04-20T10:31:24.551Z,96362.00
2019-04-20T10:34:15.840Z,96352.00
2019-04-20T10:37:24.460Z,96356.00
2019-04-20T10:39:56.548Z,96353.00
2019-04-20T10:42:48.124Z,96352.00
2019-04-20T10:45:39.522Z,96355.00
2019-04-20T10:48:52.567Z,96343.00
2019-04-20T10:51:24.203Z,96346.00
2019-04-20T10:53:56.093Z,96351.00
2019-04-20T10:57:10.098Z,96348.00
2019-04-20T10:59:50.293Z,96354.00
2019-04-20T11:03:15.851Z,96346.00
2019-04-20T11:06:12.368Z,96337.00
2019-04-20T11:08:44.945Z,96348.00
2019-04-20T11:12:04.211Z,96345.00
2019-04-20T11:15:36.670Z,96345.00
2019-04-20T11:18:07.376Z,96337.00
2019-04-20T11:20:49.633Z,96343.00
2019-04-20T11:23:20.810Z,96336.00
2019-04-20T11:25:52.529Z,96336.00
2019-04-20T11:29:18.197Z,96320.00
2019-04-20T11:32:13.429Z,96334.00
2019-04-20T11:35:13.773Z,96330.00
2019-04-20T11:37:55.456Z,96327.00
2019-04-20T11:40:28.845Z,96336.00
2019-04-20T11:43:22.268Z,96332.00
2019-04-20T11:45:56.797Z,96330.00
2019-04-20T11:48:57.309Z,96327.00
2019-04-20T11:52:19.680Z,96321.00
2019-04-20T11:55:28.552Z,96322.00
2019-04-20T11:58:38.668Z,96321.00
2019-04-20T12:01:38.124Z,96331.00
2019-04-20T12:04:40.711Z,96315.00
2019-04-20T12:07:08.988Z,96319.00
2019-04-20T12:10:13.851Z,96321.00
2019-04-20T12:12:59.651Z,96313.00
2019-04-20T12:15:45.425Z,96302.00
2019-04-20T12:19:10.583Z,96308.00
2019-04-20T12:22:00.004Z,96310.00
2019-04-20T12:24:34.035Z,96306.00
2019-04-20T12:28:21.981Z,96303.00
2019-04-20T12:31:19.635Z,96306.00
2019-04-20T12:33:52.573Z,96304.00
2019-04-20T12:36:23.993Z,96295.00
2019-04-20T12:39:35.332Z,96292.00
2019-04-20T12:42:17.470Z,96293.00
2019-04-20T12:45:05.935Z,96294.00
2019-04-20T12:48:23.802Z,96275.00
2019-04-20T12:51:36.669Z,96284.00
2019-04-20T12:54:06.621Z,96293.00
2019-04-20T12:56:56.324Z,96284.00
2019-04-20T13:00:03.472Z,96283.00
2019-04-20T13:02:51.473Z,96286.00
2019-04-20T13:05:22.741Z,96277.00
2019-04-20T13:08:33.297Z,96275.00
2019-04-20T13:11:34.706Z,96278.00
2019-04-20T13:14:52.776Z,96279.00
2019-04-20T13:18:23.332Z,96280.00
2019-04-20T13:21:19.003Z,96274.00
2019-04-20T13:25:07.513Z,96274.00
2019-04-20T13:27:58.934Z,96270.00
2019-04-20T13:30:50.093Z,96276.00
2019-04-20T13:33:51.612Z,96269.00
2019-04-20T13:36:40.349Z,96261.00
2019-04-20T13:39:36.163Z,96266.00
2019-04-20T13:42:20.704Z,96260.00
2019-04-20T13:45:24.690Z,96259.00
2019-04-20T13:48:04.196Z,96262.00
2019-04-20T13:51:02.563Z,96253.00
2019-04-20T13:53:33.857Z,96255.00
2019-04-20T13:56:19.803Z,96254.00
2019-04-20T13:59:24.129Z,96248.00
2019-04-20T14:02:33.148Z,96240.00
2019-04-20T14:05:22.903Z,96237.00
2019-04-20T14:07:53.571Z,96245.00
2019-04-20T14:10:53.457Z,96240.00
2019-04-20T14:13:54.722Z,96234.00
2019-04-20T14:16:43.146Z,96235.00
2019-04-20T14:19:38.771Z,96227.00
2019-04-20T14:22:29.198Z,96219.00
2019-04-20T14:25:05.044Z,96214.00
2019-04-20T14:27:55.344Z,96217.00
2019-04-20T14:31:05.802Z,96217.00
2019-04-20T14:33:55.010Z,96221.00
2019-04-20T14:36:27.169Z,96213.00
2019-04-20T14:39:06.554Z,96207.00
2019-04-20T14:41:40.387Z,96202.00
2019-04-20T14:44:32.016Z,96202.00
2019-04-20T14:47:03.659Z,96199.00
2019-04-20T14:49:36.954Z,96203.00
2019-04-20T14:52:09.535Z,96194.00
2019-04-20T14:54:41.377Z,96194.00
2019-04-20T14:57:13.631Z,96188.00
2019-04-20T14:59:52.009Z,96198.00
2019-04-20T15:02:25.844Z,96192.00
2019-04-20T15:04:57.015Z,96186.00
2019-04-20T15:07:28.844Z,96190.00
2019-04-20T15:10:00.780Z,96182.00
2019-04-20T15:12:44.556Z,96184.00
2019-04-20T15:15:04.915Z,96180.00
2019-04-20T15:17:43.827Z,96182.00
2019-04-20T15:20:27.678Z,96176.00
2019-04-20T15:23:05.480Z,96182.00
2019-04-20T15:25:37.914Z,96177.00
2019-04-20T15:28:08.567Z,96176.00
2019-04-20T15:30:40.393Z,96175.00
2019-04-20T15:33:14.854Z,96178.00
2019-04-20T15:35:46.122Z,96168.00
2019-04-20T15:38:18.228Z,96170.00
2019-04-20T15:40:49.074Z,96175.00
2019-04-20T15:43:27.856Z,96176.00
2019-04-20T15:45:59.254Z,96175.00
2019-04-20T15:48:32.189Z,96164.00
2019-04-20T15:51:07.934Z,96163.00
2019-04-20T15:53:41.751Z,96165.00
2019-04-20T15:56:13.183Z,96167.00
2019-04-20T15:58:46.148Z,96167.00
2019-04-20T16:01:20.645Z,96167.00
2019-04-20T16:03:59.329Z,96165.00
2019-04-20T16:06:31.553Z,96158.00
2019-04-20T16:09:04.494Z,96160.00
2019-04-20T16:11:35.180Z,96153.00
2019-04-20T16:14:07.235Z,96151.00
2019-04-20T16:16:37.885Z,96158.00
2019-04-20T16:19:13.677Z,96152.00
2019-04-20T16:21:41.664Z,96151.00
2019-04-20T16:24:15.302Z,96154.00
2019-04-20T16:27:17.929Z,96140.00
2019-04-20T16:29:49.512Z,96140.00
2019-04-20T16:32:24.488Z,96141.00
2019-04-20T16:38:43.488Z,96141.00
2019-04-20T16:41:14.656Z,96133.00
2019-04-20T16:43:46.746Z,96129.00
2019-04-20T16:46:20.490Z,96144.00
2019-04-20T16:48:57.004Z,96135.00
2019-04-20T16:51:32.671Z,96128.00
2019-04-20T16:54:03.880Z,96134.00
2019-04-20T16:57:33.991Z,96130.00
2019-04-20T17:00:05.466Z,96129.00
2019-04-20T17:02:36.330Z,96129.00
2019-04-20T17:05:07.616Z,96120.00
2019-04-20T17:07:42.693Z,96122.00
2019-04-20T17:10:17.683Z,96129.00
2019-04-20T17:12:48.466Z,96126.00
2019-04-20T17:15:21.483Z,96130.00
2019-04-20T17:17:53.815Z,96122.00
2019-04-20T17:20:27.035Z,96124.00
2019-04-20T17:22:58.369Z,96119.00
2019-04-20T17:25:30.061Z,96122.00
2019-04-20T17:28:33.423Z,96126.00
2019-04-20T17:31:20.465Z,96126.00
2019-04-20T17:34:04.990Z,96124.00
2019-04-20T17:36:32.879Z,96119.00
2019-04-20T17:39:11.784Z,96117.00
2019-04-20T17:41:56.275Z,96124.00
2019-04-20T17:44:28.744Z,96119.00
2019-04-20T17:46:59.021Z,96125.00
2019-04-20T17:49:36.851Z,96124.00
2019-04-20T17:52:18.987Z,96129.00
2019-04-20T17:54:35.615Z,96126.00
2019-04-20T17:57:09.119Z,96132.00
2019-04-20T17:59:47.121Z,96128.00
2019-04-20T18:02:49.187Z,96128.00
2019-04-20T18:05:44.951Z,96129.00
2019-04-20T18:08:15.370Z,96134.00
2019-04-20T18:10:44.403Z,96136.00
2019-04-20T18:13:09.057Z,96126.00
2019-04-20T18:15:51.801Z,96133.00
2019-04-20T18:18:40.879Z,96140.00
2019-04-20T18:21:04.741Z,96139.00
2019-04-20T18:23:41.045Z,96143.00
2019-04-20T18:26:30.202Z,96136.00
2019-04-20T18:29:05.187Z,96137.00
2019-04-20T18:31:31.733Z,96132.00
2019-04-20T18:34:17.953Z,96134.00
2019-04-20T18:36:48.263Z,96129.00
2019-04-20T18:39:31.833Z,96135.00
2019-04-20T18:42:03.120Z,96132.00
2019-04-20T18:44:55.562Z,96127.00
2019-04-20T18:47:31.800Z,96136.00
2019-04-20T18:49:50.452Z,96132.00
2019-04-20T18:52:16.051Z,96139.00
2019-04-20T18:54:49.701Z,96140.00
2019-04-20T18:57:24.886Z,96138.00
2019-04-20T18:59:54.802Z,96141.00
2019-04-20T19:02:30.829Z,96137.00
2019-04-20T19:05:05.554Z,96137.00
2019-04-20T19:07:51.522Z,96139.00
2019-04-20T19:10:23.638Z,96143.00
2019-04-20T19:13:01.019Z,96140.00
2019-04-20T19:15:53.360Z,96144.00
2019-04-20T19:18:36.734Z,96143.00
2019-04-20T19:20:57.067Z,96149.00
2019-04-20T19:23:29.312Z,96153.00
2019-04-20T19:26:09.650Z,96147.00
2019-04-20T19:28:45.145Z,96151.00
2019-04-20T19:31:25.009Z,96154.00
2019-04-20T19:34:03.424Z,96153.00
2019-04-20T19:36:28.720Z,96146.00
2019-04-20T19:39:08.226Z,96148.00
2019-04-20T19:41:38.297Z,96148.00
2019-04-20T19:44:10.028Z,96149.00
2019-04-20T19:46:55.079Z,96152.00
2019-04-20T19:49:25.068Z,96146.00
2019-04-20T19:52:27.221Z,96149.00
2019-04-20T19:54:46.748Z,96143.00
2019-04-20T19:57:28.635Z,96138.00
2019-04-20T19:59:44.059Z,96143.00
2019-04-20T20:02:18.043Z,96152.00
2019-04-20T20:05:02.723Z,96143.00
2019-04-20T20:07:44.260Z,96147.00
2019-04-20T20:10:20.845Z,96153.00
2019-04-20T20:12:54.822Z,96151.00
2019-04-20T20:15:29.603Z,96154.00
2019-04-20T20:18:23.130Z,96151.00
2019-04-20T20:20:57.785Z,96149.00
2019-04-20T20:23:14.275Z,96146.00
2019-04-20T20:25:49.221Z,96148.00
2019-04-20T20:28:31.284Z,96153.00
2019-04-20T20:31:01.723Z,96154.00
2019-04-20T20:33:43.620Z,96152.00
2019-04-20T20:36:11.366Z,96151.00
2019-04-20T20:38:40.852Z,96142.00
2019-04-20T20:41:25.231Z,96155.00
2019-04-20T20:44:06.902Z,96152.00
2019-04-20T20:46:43.928Z,96154.00
2019-04-20T20:49:21.176Z,96149.00
2019-04-20T20:51:54.324Z,96154.00
2019-04-20T20:54:25.812Z,96145.00
2019-04-20T20:56:52.712Z,96145.00
2019-04-20T20:59:30.268Z,96155.00
2019-04-20T21:01:54.082Z,96149.00
2019-04-20T21:04:21.681Z,96149.00
2019-04-20T21:06:52.829Z,96149.00
2019-04-20T21:09:25.409Z,96147.00
2019-04-20T21:12:01.796Z,96148.00
2019-04-20T21:14:31.522Z,96155.00
2019-04-20T21:17:12.301Z,96151.00
2019-04-20T21:19:56.280Z,96151.00
2019-04-20T21:22:17.060Z,96146.00
2019-04-20T21:24:48.457Z,96149.00
2019-04-20T21:27:21.993Z,96144.00
2019-04-20T21:30:18.294Z,96154.00
2019-04-20T21:32:50.710Z,96147.00
2019-04-20T21:35:19.947Z,96152.00
2019-04-20T21:37:58.254Z,96166.00
2019-04-20T21:40:34.015Z,96158.00
2019-04-20T21:43:02.372Z,96153.00
2019-04-20T21:45:34.273Z,96150.00
2019-04-20T21:48:09.839Z,96151.00
2019-04-20T21:50:57.476Z,96153.00
2019-04-20T21:53:15.903Z,96152.00
2019-04-20T21:55:41.771Z,96141.00
2019-04-20T21:58:14.040Z,96139.00
2019-04-20T22:01:12.479Z,96139.00
2019-04-20T22:03:34.205Z,96135.00
2019-04-20T22:06:08.895Z,96144.00
2019-04-20T22:08:49.337Z,96142.00
2019-04-20T22:11:15.695Z,96135.00
2019-04-20T22:13:49.391Z,96138.00
2019-04-20T22:16:20.791Z,96139.00
2019-04-20T22:19:09.127Z,96136.00
2019-04-20T22:21:37.975Z,96136.00
2019-04-20T22:24:10.548Z,96132.00
2019-04-20T22:26:39.440Z,96129.00
2019-04-20T22:29:02.460Z,96129.00
2019-04-20T22:31:34.027Z,96129.00
2019-04-20T22:34:10.395Z,96118.00
2019-04-20T22:36:43.083Z,96115.00
2019-04-20T22:39:32.213Z,96118.00
2019-04-20T22:42:03.152Z,96117.00
2019-04-20T22:44:32.454Z,96115.00
2019-04-20T22:47:05.369Z,96116.00
2019-04-20T22:49:49.752Z,96110.00
2019-04-20T22:52:26.510Z,96107.00
2019-04-20T22:54:54.760Z,96097.00
2019-04-20T22:57:29.494Z,96098.00
2019-04-20T22:59:55.501Z,96092.00
2019-04-20T23:02:22.556Z,96086.00
2019-04-20T23:04:52.742Z,96099.00
2019-04-20T23:07:23.547Z,96097.00
2019-04-20T23:09:57.835Z,96095.00
2019-04-20T23:12:30.350Z,96090.00
2019-04-20T23:15:00.946Z,96087.00
2019-04-20T23:17:38.169Z,96076.00
2019-04-20T23:20:13.298Z,96077.00
2019-04-20T23:26:30.879Z,96070.00
2019-04-20T23:28:59.595Z,96072.00
2019-04-20T23:31:30.355Z,96078.00
2019-04-20T23:34:09.198Z,96067.00
2019-04-20T23:36:39.078Z,96072.00
2019-04-20T23:39:08.723Z,96078.00
2019-04-20T23:41:43.548Z,96069.00
2019-04-20T23:44:29.532Z,96066.00
2019-04-20T23:47:11.618Z,96062.00
2019-04-20T23:49:55.693Z,96060.00
2019-04-20T23:52:35.581Z,96059.00
2019-04-20T23:54:53.605Z,96053.00
2019-04-20T23:57:19.728Z,96041.00
2019-04-20T23:59:52.000Z,96046.00
